createdAt,value
2022-10-30T00:00:41.808Z,100.00
2022-10-30T00:03:15.778Z,100.00
2022-10-30T00:05:47.929Z,100.00
2022-10-30T00:08:17.295Z,100.00
2022-10-30T00:10:45.167Z,100.00
2022-10-30T00:13:13.157Z,100.00
2022-10-30T00:15:40.667Z,100.00
2022-10-30T00:18:08.003Z,100.00
2022-10-30T00:20:36.846Z,100.00
2022-10-30T00:23:04.161Z,100.00
2022-10-30T00:25:31.600Z,100.00
2022-10-30T00:27:58.947Z,100.00
2022-10-30T00:30:26.260Z,100.00
2022-10-30T00:32:53.584Z,100.00
2022-10-30T00:35:20.854Z,100.00
2022-10-30T00:37:48.132Z,100.00
2022-10-30T00:40:17.897Z,100.00
2022-10-30T00:42:45.330Z,100.00
2022-10-30T00:45:17.492Z,100.00
2022-10-30T00:47:52.294Z,100.00
2022-10-30T00:53:09.936Z,100.00
2022-10-30T00:55:48.570Z,100.00
2022-10-30T00:58:19.337Z,100.00
2022-10-30T01:00:49.195Z,100.00
2022-10-30T01:03:16.615Z,100.00
2022-10-30T01:05:45.768Z,100.00
2022-10-30T01:08:13.195Z,100.00
2022-10-30T01:10:40.596Z,100.00
2022-10-30T01:13:08.153Z,100.00
2022-10-30T01:15:39.943Z,100.00
2022-10-30T01:18:26.341Z,100.00
2022-10-30T01:21:18.629Z,100.00
2022-10-30T01:24:17.153Z,100.00
2022-10-30T01:27:09.202Z,100.00
2022-10-30T01:30:01.900Z,100.00
2022-10-30T01:32:42.603Z,100.00
2022-10-30T01:35:38.688Z,100.00
2022-10-30T01:38:16.915Z,100.00
2022-10-30T01:40:45.589Z,100.00
2022-10-30T01:43:13.173Z,100.00
2022-10-30T01:45:49.858Z,100.00
2022-10-30T01:48:29.949Z,100.00
2022-10-30T01:51:17.780Z,100.00
2022-10-30T01:54:03.724Z,100.00
2022-10-30T01:56:36.754Z,100.00
2022-10-30T01:59:23.538Z,100.00
2022-10-30T02:01:51.204Z,100.00
2022-10-30T02:04:18.818Z,100.00
2022-10-30T02:06:46.705Z,100.00
2022-10-30T02:09:16.589Z,100.00
2022-10-30T02:11:48.823Z,100.00
2022-10-30T02:14:21.607Z,100.00
2022-10-30T02:16:51.560Z,100.00
2022-10-30T02:19:20.511Z,100.00
2022-10-30T02:21:48.860Z,100.00
2022-10-30T02:24:16.248Z,100.00
2022-10-30T02:26:43.757Z,100.00
2022-10-30T02:29:11.133Z,100.00
2022-10-30T02:31:38.475Z,100.00
2022-10-30T02:34:06.135Z,100.00
2022-10-30T02:36:33.537Z,100.00
2022-10-30T02:39:00.898Z,100.00
2022-10-30T02:41:28.258Z,100.00
2022-10-30T02:43:55.863Z,100.00
2022-10-30T02:46:23.363Z,100.00
2022-10-30T02:48:51.027Z,100.00
2022-10-30T02:51:18.334Z,100.00
2022-10-30T02:53:47.446Z,100.00
2022-10-30T02:56:15.607Z,100.00
2022-10-30T02:58:43.704Z,100.00
2022-10-30T03:01:16.638Z,100.00
2022-10-30T03:03:45.133Z,100.00
2022-10-30T03:06:15.591Z,100.00
2022-10-30T03:08:43.822Z,100.00
2022-10-30T03:11:16.549Z,100.00
2022-10-30T03:13:45.080Z,100.00
2022-10-30T03:16:14.922Z,100.00
2022-10-30T03:18:42.752Z,100.00
2022-10-30T03:21:13.627Z,100.00
2022-10-30T03:23:40.947Z,100.00
2022-10-30T03:26:08.664Z,100.00
2022-10-30T03:28:54.710Z,100.00
2022-10-30T03:31:22.466Z,100.00
2022-10-30T03:34:04.172Z,100.00
2022-10-30T03:36:31.508Z,100.00
2022-10-30T03:38:58.804Z,100.00
2022-10-30T03:41:26.917Z,100.00
2022-10-30T03:43:54.647Z,100.00
2022-10-30T03:46:22.266Z,100.00
2022-10-30T03:48:50.975Z,100.00
2022-10-30T03:51:18.363Z,100.00
2022-10-30T03:53:47.353Z,100.00
2022-10-30T03:56:14.670Z,100.00
2022-10-30T03:58:47.284Z,100.00
2022-10-30T04:01:18.992Z,100.00
2022-10-30T04:03:50.323Z,100.00
2022-10-30T04:06:18.020Z,100.00
2022-10-30T04:08:45.416Z,100.00
2022-10-30T04:11:12.826Z,100.00
2022-10-30T04:13:41.051Z,100.00
2022-10-30T04:16:08.511Z,100.00
2022-10-30T04:18:35.819Z,100.00
2022-10-30T04:21:03.442Z,100.00
2022-10-30T04:23:32.193Z,100.00
2022-10-30T04:26:01.708Z,100.00
2022-10-30T04:28:29.215Z,100.00
2022-10-30T04:30:57.281Z,100.00
2022-10-30T04:33:26.127Z,100.00
2022-10-30T04:35:54.864Z,100.00
2022-10-30T04:38:22.367Z,100.00
2022-10-30T04:40:50.027Z,100.00
2022-10-30T04:43:18.727Z,100.00
2022-10-30T04:45:50.137Z,100.00
2022-10-30T04:48:18.670Z,100.00
2022-10-30T04:50:47.881Z,100.00
2022-10-30T04:53:24.792Z,100.00
2022-10-30T04:55:58.097Z,100.00
2022-10-30T04:58:27.611Z,100.00
2022-10-30T05:01:05.896Z,100.00
2022-10-30T05:03:34.436Z,100.00
2022-10-30T05:06:06.322Z,100.00
2022-10-30T05:08:34.089Z,100.00
2022-10-30T05:11:07.996Z,100.00
2022-10-30T05:13:36.285Z,100.00
2022-10-30T05:16:03.879Z,100.00
2022-10-30T05:18:32.557Z,100.00
2022-10-30T05:20:59.999Z,100.00
2022-10-30T05:23:27.449Z,100.00
2022-10-30T05:25:54.868Z,100.00
2022-10-30T05:28:22.271Z,100.00
2022-10-30T05:30:55.836Z,100.00
2022-10-30T05:33:46.130Z,100.00
2022-10-30T05:36:14.390Z,100.00
2022-10-30T05:38:42.539Z,100.00
2022-10-30T05:41:14.872Z,100.00
2022-10-30T05:43:42.343Z,100.00
2022-10-30T05:46:09.821Z,100.00
2022-10-30T05:48:37.610Z,100.00
2022-10-30T05:51:06.649Z,100.00
2022-10-30T05:53:34.299Z,100.00
2022-10-30T05:56:03.055Z,100.00
2022-10-30T05:58:34.482Z,100.00
2022-10-30T06:01:09.717Z,100.00
2022-10-30T06:03:44.850Z,100.00
2022-10-30T06:06:13.035Z,100.00
2022-10-30T06:08:40.580Z,100.00
2022-10-30T06:11:26.671Z,100.00
2022-10-30T06:13:56.323Z,100.00
2022-10-30T06:16:35.862Z,100.00
2022-10-30T06:19:23.499Z,100.00
2022-10-30T06:21:54.831Z,100.00
2022-10-30T06:24:27.052Z,100.00
2022-10-30T06:27:13.297Z,100.00
2022-10-30T06:29:40.813Z,100.00
2022-10-30T06:32:09.069Z,100.00
2022-10-30T06:34:37.310Z,100.00
2022-10-30T06:37:04.851Z,100.00
2022-10-30T06:39:32.871Z,100.00
2022-10-30T06:42:20.516Z,100.00
2022-10-30T06:44:57.851Z,100.00
2022-10-30T06:47:25.258Z,100.00
2022-10-30T06:49:52.677Z,100.00
2022-10-30T06:52:23.026Z,100.00
2022-10-30T06:54:51.658Z,100.00
2022-10-30T06:57:38.187Z,100.00
2022-10-30T07:00:37.977Z,100.00
2022-10-30T07:03:14.362Z,100.00
2022-10-30T07:05:41.927Z,100.00
2022-10-30T07:08:09.308Z,100.00
2022-10-30T07:10:37.046Z,100.00
2022-10-30T07:13:28.398Z,100.00
2022-10-30T07:16:01.393Z,100.00
2022-10-30T07:18:36.319Z,100.00
2022-10-30T07:21:03.788Z,100.00
2022-10-30T07:23:32.180Z,100.00
2022-10-30T07:26:20.139Z,100.00
2022-10-30T07:28:47.731Z,100.00
2022-10-30T07:31:34.851Z,100.00
2022-10-30T07:34:26.257Z,100.00
2022-10-30T07:37:06.123Z,100.00
2022-10-30T07:39:43.557Z,100.00
2022-10-30T07:42:19.402Z,100.00
2022-10-30T07:45:05.809Z,100.00
2022-10-30T07:47:52.044Z,100.00
2022-10-30T07:50:33.860Z,100.00
2022-10-30T07:53:01.165Z,100.00
2022-10-30T07:55:31.940Z,100.00
2022-10-30T07:58:19.307Z,92.69
2022-10-30T08:01:05.381Z,89.88
2022-10-30T08:03:34.263Z,91.23
2022-10-30T08:06:06.836Z,89.20
2022-10-30T08:08:42.089Z,84.43
2022-10-30T08:11:39.642Z,87.43
2022-10-30T08:14:07.024Z,86.10
2022-10-30T08:16:34.366Z,84.83
2022-10-30T08:19:02.948Z,83.44
2022-10-30T08:21:30.286Z,80.41
2022-10-30T08:24:06.171Z,77.57
2022-10-30T08:26:35.499Z,76.82
2022-10-30T08:29:03.501Z,72.22
2022-10-30T08:31:31.750Z,72.89
2022-10-30T08:34:01.795Z,71.13
2022-10-30T08:36:51.466Z,74.76
2022-10-30T08:39:20.082Z,73.28
2022-10-30T08:42:24.840Z,73.09
2022-10-30T08:44:54.654Z,73.34
2022-10-30T08:47:41.998Z,73.72
2022-10-30T08:50:09.627Z,68.97
2022-10-30T08:52:37.857Z,63.12
2022-10-30T08:55:09.377Z,67.10
2022-10-30T08:57:39.094Z,66.95
2022-10-30T09:00:09.604Z,63.26
2022-10-30T09:02:58.055Z,65.28
2022-10-30T09:05:43.836Z,65.09
2022-10-30T09:08:31.529Z,65.96
2022-10-30T09:11:37.156Z,61.04
2022-10-30T09:14:04.511Z,58.81
2022-10-30T09:16:31.958Z,57.94
2022-10-30T09:18:59.395Z,57.44
2022-10-30T09:21:27.009Z,57.20
2022-10-30T09:23:54.736Z,55.21
2022-10-30T09:26:37.206Z,49.65
2022-10-30T09:29:27.484Z,48.80
2022-10-30T09:32:05.091Z,50.49
2022-10-30T09:34:33.378Z,47.27
2022-10-30T09:37:05.476Z,46.36
2022-10-30T09:39:36.821Z,47.08
2022-10-30T09:42:37.714Z,45.60
2022-10-30T09:45:30.018Z,42.75
2022-10-30T09:48:02.296Z,40.62
2022-10-30T09:50:53.407Z,40.30
2022-10-30T09:54:01.463Z,38.72
2022-10-30T09:56:42.816Z,37.49
2022-10-30T09:59:26.592Z,38.79
2022-10-30T10:01:54.020Z,40.35
2022-10-30T10:04:27.460Z,42.64
2022-10-30T10:07:47.740Z,43.46
2022-10-30T10:10:46.568Z,44.64
2022-10-30T10:13:42.222Z,40.45
2022-10-30T10:16:20.739Z,38.74
2022-10-30T10:18:53.629Z,41.56
2022-10-30T10:21:29.125Z,40.91
2022-10-30T10:24:01.025Z,39.05
2022-10-30T10:26:57.657Z,38.41
2022-10-30T10:29:59.816Z,37.26
2022-10-30T10:32:36.012Z,37.07
2022-10-30T10:35:33.603Z,35.03
2022-10-30T10:38:07.083Z,35.85
2022-10-30T10:40:40.208Z,34.91
2022-10-30T10:43:18.653Z,35.59
2022-10-30T10:46:04.868Z,34.70
2022-10-30T10:48:56.267Z,34.66
2022-10-30T10:51:41.102Z,34.39
2022-10-30T10:54:24.877Z,35.66
2022-10-30T10:56:52.716Z,37.79
2022-10-30T10:59:38.781Z,40.29
2022-10-30T11:02:06.081Z,39.70
2022-10-30T11:04:39.457Z,37.31
2022-10-30T11:07:27.134Z,37.72
2022-10-30T11:09:55.603Z,39.97
2022-10-30T11:12:36.384Z,38.71
2022-10-30T11:15:29.078Z,39.56
2022-10-30T11:18:01.949Z,42.73
2022-10-30T11:20:32.018Z,38.93
2022-10-30T11:22:59.536Z,42.11
2022-10-30T11:25:33.472Z,41.13
2022-10-30T11:28:04.381Z,39.38
2022-10-30T11:30:32.544Z,37.94
2022-10-30T11:33:00.557Z,36.04
2022-10-30T11:35:27.946Z,34.97
2022-10-30T11:38:21.325Z,32.70
2022-10-30T11:40:51.526Z,33.24
2022-10-30T11:43:22.420Z,32.34
2022-10-30T11:45:50.603Z,31.93
2022-10-30T11:48:27.959Z,33.47
2022-10-30T11:51:02.046Z,34.85
2022-10-30T11:53:39.265Z,32.90
2022-10-30T11:56:21.746Z,33.56
2022-10-30T11:58:53.880Z,33.47
2022-10-30T12:01:37.111Z,31.88
2022-10-30T12:04:27.461Z,34.45
2022-10-30T12:07:21.352Z,33.45
2022-10-30T12:09:48.879Z,31.24
2022-10-30T12:12:23.439Z,32.63
2022-10-30T12:14:51.820Z,33.44
2022-10-30T12:17:19.856Z,30.91
2022-10-30T12:19:57.397Z,33.38
2022-10-30T12:22:35.222Z,33.93
2022-10-30T12:25:25.884Z,36.75
2022-10-30T12:28:13.371Z,38.49
2022-10-30T12:31:10.959Z,38.76
2022-10-30T12:33:50.010Z,40.40
2022-10-30T12:36:25.498Z,37.01
2022-10-30T12:39:11.846Z,41.74
2022-10-30T12:42:04.251Z,42.61
2022-10-30T12:44:39.231Z,42.13
2022-10-30T12:48:02.556Z,39.76
2022-10-30T12:50:59.014Z,42.06
2022-10-30T12:53:34.739Z,42.82
2022-10-30T12:56:14.817Z,43.08
2022-10-30T12:59:43.787Z,44.67
2022-10-30T13:02:28.493Z,44.41
2022-10-30T13:05:04.311Z,46.10
2022-10-30T13:07:45.415Z,46.19
2022-10-30T13:10:46.415Z,44.50
2022-10-30T13:13:24.729Z,45.02
2022-10-30T13:15:55.946Z,46.31
2022-10-30T13:18:26.834Z,42.20
2022-10-30T13:21:05.909Z,45.46
2022-10-30T13:24:00.046Z,46.16
2022-10-30T13:26:54.762Z,46.62
2022-10-30T13:29:42.676Z,48.79
2022-10-30T13:32:21.434Z,47.55
2022-10-30T13:35:26.035Z,46.92
2022-10-30T13:38:11.804Z,47.87
2022-10-30T13:40:59.193Z,46.07
2022-10-30T13:43:44.262Z,45.80
2022-10-30T13:46:33.792Z,48.17
2022-10-30T13:49:40.290Z,51.93
2022-10-30T13:52:15.221Z,51.86
2022-10-30T13:55:08.389Z,52.56
2022-10-30T13:57:41.422Z,56.95
2022-10-30T14:00:22.804Z,60.32
2022-10-30T14:03:23.520Z,59.04
2022-10-30T14:06:12.761Z,62.57
2022-10-30T14:09:10.428Z,62.59
2022-10-30T14:11:37.361Z,64.30
2022-10-30T14:14:13.058Z,65.17
2022-10-30T14:17:08.766Z,65.98
2022-10-30T14:20:13.781Z,70.17
2022-10-30T14:22:41.555Z,74.92
2022-10-30T14:25:16.000Z,77.10
2022-10-30T14:27:43.349Z,79.87
2022-10-30T14:30:19.511Z,81.99
2022-10-30T14:32:53.390Z,82.70
2022-10-30T14:35:36.339Z,80.99
2022-10-30T14:38:09.019Z,83.32
2022-10-30T14:40:44.542Z,85.67
2022-10-30T14:43:48.253Z,88.49
2022-10-30T14:47:04.496Z,88.02
2022-10-30T14:49:47.791Z,90.70
2022-10-30T14:52:34.828Z,96.81
2022-10-30T14:55:28.220Z,100.00
2022-10-30T14:58:04.195Z,100.00
2022-10-30T15:00:34.930Z,100.00
2022-10-30T15:03:18.338Z,100.00
2022-10-30T15:05:55.713Z,100.00
2022-10-30T15:08:46.243Z,100.00
2022-10-30T15:11:45.278Z,100.00
2022-10-30T15:14:52.565Z,100.00
2022-10-30T15:17:33.624Z,100.00
2022-10-30T15:20:06.167Z,100.00
2022-10-30T15:22:34.927Z,100.00
2022-10-30T15:25:03.706Z,100.00
2022-10-30T15:27:33.208Z,100.00
2022-10-30T15:30:04.305Z,100.00
2022-10-30T15:32:31.221Z,100.00
2022-10-30T15:35:05.269Z,100.00
2022-10-30T15:37:32.595Z,100.00
2022-10-30T15:40:21.349Z,100.00
2022-10-30T15:42:50.810Z,100.00
2022-10-30T15:45:46.476Z,100.00
2022-10-30T15:48:32.911Z,100.00
2022-10-30T15:51:18.053Z,100.00
2022-10-30T15:53:59.768Z,100.00
2022-10-30T15:56:32.703Z,100.00
2022-10-30T15:59:24.081Z,100.00
2022-10-30T16:01:54.888Z,100.00
2022-10-30T16:04:25.439Z,100.00
2022-10-30T16:07:03.704Z,100.00
2022-10-30T16:09:30.752Z,100.00
2022-10-30T16:12:00.315Z,100.00
2022-10-30T16:14:34.830Z,100.00
2022-10-30T16:17:02.806Z,100.00
2022-10-30T16:19:41.779Z,100.00
2022-10-30T16:22:24.250Z,100.00
2022-10-30T16:24:51.512Z,100.00
2022-10-30T16:27:21.721Z,100.00
2022-10-30T16:29:58.819Z,100.00
2022-10-30T16:32:30.557Z,100.00
2022-10-30T16:34:59.891Z,100.00
2022-10-30T16:37:37.368Z,100.00
2022-10-30T16:40:15.437Z,100.00
2022-10-30T16:42:49.557Z,100.00
2022-10-30T16:45:19.530Z,100.00
2022-10-30T16:47:54.120Z,100.00
2022-10-30T16:50:21.233Z,100.00
2022-10-30T16:52:49.600Z,100.00
2022-10-30T16:55:22.226Z,100.00
2022-10-30T16:57:56.302Z,100.00
2022-10-30T17:00:27.496Z,100.00
2022-10-30T17:02:57.740Z,100.00
2022-10-30T17:05:33.755Z,100.00
2022-10-30T17:08:17.320Z,100.00
2022-10-30T17:10:57.607Z,100.00
2022-10-30T17:13:51.980Z,100.00
2022-10-30T17:16:25.525Z,100.00
2022-10-30T17:18:55.281Z,100.00
2022-10-30T17:21:39.745Z,100.00
2022-10-30T17:24:19.219Z,100.00
2022-10-30T17:26:56.347Z,100.00
2022-10-30T17:29:38.528Z,100.00
2022-10-30T17:32:27.647Z,100.00
2022-10-30T17:35:01.086Z,100.00
2022-10-30T17:37:28.583Z,100.00
2022-10-30T17:39:56.375Z,100.00
2022-10-30T17:42:23.353Z,100.00
2022-10-30T17:44:50.350Z,100.00
2022-10-30T17:47:19.961Z,100.00
2022-10-30T17:49:47.213Z,100.00
2022-10-30T17:52:17.894Z,100.00
2022-10-30T17:54:45.188Z,100.00
2022-10-30T17:57:14.257Z,100.00
2022-10-30T17:59:42.548Z,100.00
2022-10-30T18:02:19.067Z,100.00
2022-10-30T18:04:47.734Z,100.00
2022-10-30T18:07:16.720Z,100.00
2022-10-30T18:09:44.266Z,100.00
2022-10-30T18:12:16.883Z,100.00
2022-10-30T18:14:45.581Z,100.00
2022-10-30T18:17:12.916Z,100.00
2022-10-30T18:19:39.847Z,100.00
2022-10-30T18:22:06.820Z,100.00
2022-10-30T18:24:33.895Z,100.00
2022-10-30T18:27:00.851Z,100.00
2022-10-30T18:29:27.762Z,100.00
2022-10-30T18:31:54.665Z,100.00
2022-10-30T18:34:21.712Z,100.00
2022-10-30T18:36:49.419Z,100.00
2022-10-30T18:39:16.348Z,100.00
2022-10-30T18:41:45.885Z,100.00
2022-10-30T18:44:17.814Z,100.00
2022-10-30T18:46:45.372Z,100.00
2022-10-30T18:49:12.627Z,100.00
2022-10-30T18:51:40.116Z,100.00
2022-10-30T18:54:15.513Z,100.00
2022-10-30T18:56:42.716Z,100.00
2022-10-30T18:59:09.731Z,100.00
2022-10-30T19:01:37.484Z,100.00
2022-10-30T19:04:09.683Z,100.00
2022-10-30T19:06:38.535Z,100.00
2022-10-30T19:09:05.751Z,100.00
2022-10-30T19:11:33.286Z,100.00
2022-10-30T19:14:00.454Z,100.00
2022-10-30T19:16:27.551Z,100.00
2022-10-30T19:18:54.645Z,100.00
2022-10-30T19:21:25.496Z,100.00
2022-10-30T19:23:53.051Z,100.00
2022-10-30T19:26:20.118Z,100.00
2022-10-30T19:28:47.010Z,100.00
2022-10-30T19:31:17.099Z,100.00
2022-10-30T19:33:44.942Z,100.00
2022-10-30T19:36:31.025Z,100.00
2022-10-30T19:38:58.196Z,100.00
2022-10-30T19:41:25.368Z,100.00
2022-10-30T19:43:53.408Z,100.00
2022-10-30T19:46:21.611Z,100.00
2022-10-30T19:48:57.788Z,100.00
2022-10-30T19:51:27.398Z,100.00
2022-10-30T19:53:54.422Z,100.00
2022-10-30T19:56:21.903Z,100.00
2022-10-30T19:58:49.526Z,100.00
2022-10-30T20:01:17.161Z,100.00
2022-10-30T20:03:44.266Z,100.00
2022-10-30T20:06:13.128Z,100.00
2022-10-30T20:08:40.236Z,100.00
2022-10-30T20:11:07.356Z,100.00
2022-10-30T20:13:34.321Z,100.00
2022-10-30T20:16:04.730Z,100.00
2022-10-30T20:18:35.065Z,100.00
2022-10-30T20:21:08.180Z,100.00
2022-10-30T20:23:36.224Z,100.00
2022-10-30T20:26:07.071Z,100.00
2022-10-30T20:28:40.640Z,100.00
2022-10-30T20:31:10.999Z,100.00
2022-10-30T20:33:38.493Z,100.00
2022-10-30T20:36:05.915Z,100.00
2022-10-30T20:38:34.581Z,100.00
2022-10-30T20:41:04.528Z,100.00
2022-10-30T20:43:38.012Z,100.00
2022-10-30T20:46:09.264Z,100.00
2022-10-30T20:48:38.035Z,100.00
2022-10-30T20:51:06.749Z,100.00
2022-10-30T20:53:34.464Z,100.00
2022-10-30T20:56:01.645Z,100.00
2022-10-30T20:58:29.281Z,100.00
2022-10-30T21:00:58.532Z,100.00
2022-10-30T21:03:27.139Z,100.00
2022-10-30T21:06:00.499Z,100.00
2022-10-30T21:08:31.351Z,100.00
2022-10-30T21:11:04.104Z,100.00
2022-10-30T21:13:33.437Z,100.00
2022-10-30T21:16:03.934Z,100.00
2022-10-30T21:18:31.268Z,100.00
2022-10-30T21:21:08.137Z,100.00
2022-10-30T21:23:35.255Z,100.00
2022-10-30T21:26:05.576Z,100.00
2022-10-30T21:28:33.963Z,100.00
2022-10-30T21:31:07.503Z,100.00
2022-10-30T21:33:36.675Z,100.00
2022-10-30T21:36:19.882Z,100.00
2022-10-30T21:38:47.165Z,100.00
2022-10-30T21:41:20.392Z,100.00
2022-10-30T21:43:58.197Z,100.00
2022-10-30T21:46:28.947Z,100.00
2022-10-30T21:48:56.560Z,100.00
2022-10-30T21:51:26.477Z,100.00
2022-10-30T21:53:55.512Z,100.00
2022-10-30T21:56:26.222Z,100.00
2022-10-30T21:58:56.389Z,100.00
2022-10-30T22:01:30.045Z,100.00
2022-10-30T22:03:59.956Z,100.00
2022-10-30T22:06:28.229Z,100.00
2022-10-30T22:08:56.964Z,100.00
2022-10-30T22:11:27.608Z,100.00
2022-10-30T22:14:00.582Z,100.00
2022-10-30T22:16:31.135Z,100.00
2022-10-30T22:18:59.043Z,100.00
2022-10-30T22:21:26.521Z,100.00
2022-10-30T22:23:53.800Z,100.00
2022-10-30T22:26:23.351Z,100.00
2022-10-30T22:28:59.610Z,100.00
2022-10-30T22:31:28.873Z,100.00
2022-10-30T22:33:55.893Z,100.00
2022-10-30T22:36:26.947Z,100.00
2022-10-30T22:39:07.644Z,100.00
2022-10-30T22:41:37.936Z,100.00
2022-10-30T22:44:08.329Z,100.00
2022-10-30T22:46:36.794Z,100.00
2022-10-30T22:49:04.338Z,100.00
2022-10-30T22:51:34.055Z,100.00
2022-10-30T22:54:04.587Z,100.00
2022-10-30T22:56:34.642Z,100.00
2022-10-30T22:59:07.532Z,100.00
2022-10-30T23:01:36.584Z,100.00
2022-10-30T23:04:05.715Z,100.00
2022-10-30T23:06:34.856Z,100.00
2022-10-30T23:09:05.973Z,100.00
2022-10-30T23:11:33.276Z,100.00
2022-10-30T23:14:00.266Z,100.00
2022-10-30T23:16:28.182Z,100.00
2022-10-30T23:18:57.503Z,100.00
2022-10-30T23:21:27.763Z,100.00
2022-10-30T23:23:56.073Z,100.00
2022-10-30T23:26:30.708Z,100.00
2022-10-30T23:28:59.231Z,100.00
2022-10-30T23:31:36.445Z,100.00
2022-10-30T23:34:07.816Z,100.00
2022-10-30T23:36:35.553Z,100.00
2022-10-30T23:39:05.962Z,100.00
2022-10-30T23:41:34.469Z,100.00
2022-10-30T23:44:12.151Z,100.00
2022-10-30T23:46:39.719Z,100.00
2022-10-30T23:49:06.725Z,100.00
2022-10-30T23:51:34.100Z,100.00
2022-10-30T23:54:01.444Z,100.00
2022-10-30T23:56:29.537Z,100.00
2022-10-30T23:58:57.510Z,100.00
